createdAt,value
2022-12-08T00:00:13.013Z,96.28
2022-12-08T00:01:12.872Z,96.28
2022-12-08T00:02:12.947Z,96.24
2022-12-08T00:03:13.010Z,96.28
2022-12-08T00:04:12.849Z,96.28
2022-12-08T00:05:12.850Z,96.28
2022-12-08T00:06:12.791Z,96.28
2022-12-08T00:07:12.777Z,96.39
2022-12-08T00:08:12.842Z,96.39
2022-12-08T00:09:12.743Z,96.28
2022-12-08T00:10:46.657Z,96.18
2022-12-08T00:11:13.737Z,96.28
2022-12-08T00:12:12.717Z,96.18
2022-12-08T00:13:12.711Z,96.18
2022-12-08T00:14:12.692Z,96.28
2022-12-08T00:15:12.733Z,96.28
2022-12-08T00:16:12.726Z,96.28
2022-12-08T00:17:12.650Z,96.28
2022-12-08T00:18:12.656Z,96.28
2022-12-08T00:19:13.689Z,96.28
2022-12-08T00:20:12.741Z,96.28
2022-12-08T00:21:12.601Z,96.18
2022-12-08T00:22:12.695Z,96.08
2022-12-08T00:23:12.592Z,96.08
2022-12-08T00:24:12.552Z,96.08
2022-12-08T00:25:12.552Z,96.18
2022-12-08T00:26:12.556Z,96.08
2022-12-08T00:27:12.520Z,96.08
2022-12-08T00:28:12.505Z,96.08
2022-12-08T00:29:17.180Z,96.08
2022-12-08T00:30:13.512Z,96.08
2022-12-08T00:31:12.482Z,95.93
2022-12-08T00:32:12.669Z,95.93
2022-12-08T00:33:12.451Z,95.93
2022-12-08T00:34:12.431Z,96.03
2022-12-08T00:35:12.549Z,96.03
2022-12-08T00:36:12.414Z,95.93
2022-12-08T00:37:12.394Z,95.83
2022-12-08T00:38:12.391Z,95.72
2022-12-08T00:39:12.377Z,95.62
2022-12-08T00:40:12.361Z,95.62
2022-12-08T00:41:12.363Z,95.66
2022-12-08T00:42:12.407Z,95.66
2022-12-08T00:43:12.322Z,95.66
2022-12-08T00:44:13.302Z,95.76
2022-12-08T00:45:12.308Z,95.76
2022-12-08T00:46:12.363Z,95.87
2022-12-08T00:47:12.287Z,95.76
2022-12-08T00:48:12.253Z,95.76
2022-12-08T00:49:12.259Z,95.76
2022-12-08T00:50:12.235Z,95.76
2022-12-08T00:51:12.243Z,95.76
2022-12-08T00:52:12.201Z,95.62
2022-12-08T00:53:12.194Z,95.66
2022-12-08T00:54:12.188Z,95.56
2022-12-08T00:55:12.182Z,95.56
2022-12-08T00:56:12.162Z,95.66
2022-12-08T00:57:12.163Z,95.66
2022-12-08T00:58:12.132Z,95.56
2022-12-08T00:59:12.133Z,95.56
2022-12-08T01:00:12.111Z,95.56
2022-12-08T01:01:12.180Z,95.66
2022-12-08T01:02:13.081Z,95.66
2022-12-08T01:03:12.125Z,95.76
2022-12-08T01:04:12.068Z,95.76
2022-12-08T01:05:13.063Z,95.87
2022-12-08T01:06:13.042Z,95.76
2022-12-08T01:07:12.030Z,95.76
2022-12-08T01:08:12.090Z,95.76
2022-12-08T01:09:12.004Z,95.76
2022-12-08T01:10:12.974Z,95.76
2022-12-08T01:11:11.983Z,95.76
2022-12-08T01:12:12.943Z,95.76
2022-12-08T01:13:11.943Z,95.76
2022-12-08T01:14:11.934Z,95.87
2022-12-08T01:15:11.925Z,95.87
2022-12-08T01:16:12.944Z,95.87
2022-12-08T01:17:11.953Z,95.97
2022-12-08T01:18:11.877Z,95.97
2022-12-08T01:19:11.961Z,95.97
2022-12-08T01:20:11.851Z,95.97
2022-12-08T01:21:11.859Z,95.87
2022-12-08T01:22:11.835Z,95.87
2022-12-08T01:23:11.832Z,95.87
2022-12-08T01:24:11.805Z,95.66
2022-12-08T01:25:11.803Z,95.56
2022-12-08T01:26:11.773Z,95.56
2022-12-08T01:27:11.771Z,95.56
2022-12-08T01:28:12.747Z,95.56
2022-12-08T01:29:11.735Z,95.60
2022-12-08T01:30:11.733Z,95.70
2022-12-08T01:31:11.835Z,95.60
2022-12-08T01:32:11.703Z,95.50
2022-12-08T01:33:11.694Z,95.50
2022-12-08T01:34:11.665Z,95.50
2022-12-08T01:35:11.672Z,95.50
2022-12-08T01:36:11.653Z,95.50
2022-12-08T01:37:11.664Z,95.50
2022-12-08T01:38:11.623Z,95.50
2022-12-08T01:39:11.624Z,95.50
2022-12-08T01:40:11.600Z,95.60
2022-12-08T01:41:11.632Z,95.60
2022-12-08T01:42:12.576Z,95.75
2022-12-08T01:43:11.582Z,95.75
2022-12-08T01:44:11.542Z,95.85
2022-12-08T01:45:11.542Z,95.85
2022-12-08T01:46:13.628Z,95.85
2022-12-08T01:47:13.544Z,95.75
2022-12-08T01:48:11.588Z,95.75
2022-12-08T01:49:11.494Z,95.85
2022-12-08T01:50:11.474Z,95.85
2022-12-08T01:51:11.488Z,95.85
2022-12-08T01:52:11.447Z,95.85
2022-12-08T01:53:11.447Z,95.85
2022-12-08T01:54:11.424Z,95.95
2022-12-08T01:55:11.414Z,96.00
2022-12-08T01:56:11.403Z,96.00
2022-12-08T01:57:11.394Z,96.00
2022-12-08T01:58:11.378Z,96.00
2022-12-08T01:59:11.375Z,96.00
2022-12-08T02:00:11.346Z,96.11
2022-12-08T02:01:11.425Z,96.11
2022-12-08T02:02:11.385Z,96.21
2022-12-08T02:03:11.330Z,96.21
2022-12-08T02:04:11.310Z,96.21
2022-12-08T02:05:11.304Z,96.21
2022-12-08T02:06:11.284Z,96.25
2022-12-08T02:07:11.254Z,96.25
2022-12-08T02:08:11.349Z,96.36
2022-12-08T02:09:12.234Z,96.36
2022-12-08T02:10:11.225Z,96.36
2022-12-08T02:11:11.224Z,96.36
2022-12-08T02:12:11.194Z,96.36
2022-12-08T02:13:11.195Z,96.36
2022-12-08T02:14:11.202Z,96.46
2022-12-08T02:15:11.162Z,96.46
2022-12-08T02:16:11.249Z,96.46
2022-12-08T02:17:11.131Z,96.56
2022-12-08T02:18:11.125Z,96.56
2022-12-08T02:20:12.094Z,96.50
2022-12-08T02:21:11.095Z,96.50
2022-12-08T02:22:11.071Z,96.50
2022-12-08T02:23:11.064Z,96.50
2022-12-08T02:24:12.046Z,96.61
2022-12-08T02:25:11.035Z,96.61
2022-12-08T02:26:11.034Z,96.61
2022-12-08T02:27:11.026Z,96.61
2022-12-08T02:28:11.006Z,96.61
2022-12-08T02:29:11.004Z,96.61
2022-12-08T02:30:10.992Z,96.61
2022-12-08T02:31:11.017Z,96.61
2022-12-08T02:32:10.948Z,96.71
2022-12-08T02:33:10.935Z,96.71
2022-12-08T02:34:10.922Z,96.71
2022-12-08T02:35:10.927Z,96.71
2022-12-08T02:36:10.931Z,96.76
2022-12-08T02:37:10.878Z,96.76
2022-12-08T02:38:10.863Z,96.76
2022-12-08T02:39:10.859Z,96.76
2022-12-08T02:40:11.857Z,96.76
2022-12-08T02:41:10.876Z,96.76
2022-12-08T02:42:10.815Z,96.76
2022-12-08T02:43:10.807Z,96.76
2022-12-08T02:44:10.796Z,96.76
2022-12-08T02:45:10.790Z,96.76
2022-12-08T02:46:10.881Z,96.76
2022-12-08T02:47:10.765Z,96.76
2022-12-08T02:48:10.750Z,96.86
2022-12-08T02:49:10.738Z,96.86
2022-12-08T02:50:10.714Z,96.86
2022-12-08T02:51:10.748Z,96.86
2022-12-08T02:52:10.716Z,96.86
2022-12-08T02:53:40.988Z,96.86
2022-12-08T02:54:40.980Z,96.86
2022-12-08T02:55:40.985Z,96.86
2022-12-08T02:56:41.974Z,96.86
2022-12-08T02:57:40.955Z,96.86
2022-12-08T02:58:40.924Z,96.86
2022-12-08T02:59:40.913Z,96.86
2022-12-08T03:00:40.936Z,96.86
2022-12-08T03:01:40.912Z,96.86
2022-12-08T03:02:40.905Z,96.80
2022-12-08T03:03:40.872Z,96.80
2022-12-08T03:04:40.854Z,96.80
2022-12-08T03:05:40.837Z,96.70
2022-12-08T03:06:40.864Z,96.70
2022-12-08T03:07:40.889Z,96.70
2022-12-08T03:08:40.809Z,96.70
2022-12-08T03:09:40.786Z,96.70
2022-12-08T03:10:40.775Z,96.70
2022-12-08T03:11:40.866Z,96.70
2022-12-08T03:12:41.754Z,96.70
2022-12-08T03:13:40.765Z,96.70
2022-12-08T03:14:40.747Z,96.70
2022-12-08T03:15:40.800Z,96.80
2022-12-08T03:16:41.722Z,96.80
2022-12-08T03:17:40.704Z,96.80
2022-12-08T03:18:40.696Z,96.80
2022-12-08T03:19:40.672Z,96.70
2022-12-08T03:20:40.669Z,96.70
2022-12-08T03:21:40.655Z,96.80
2022-12-08T03:22:40.647Z,96.80
2022-12-08T03:23:40.615Z,96.80
2022-12-08T03:24:40.611Z,96.80
2022-12-08T03:25:40.585Z,96.80
2022-12-08T03:26:41.595Z,96.80
2022-12-08T03:27:40.567Z,96.80
2022-12-08T03:28:40.577Z,96.80
2022-12-08T03:29:40.555Z,96.80
2022-12-08T03:30:40.566Z,96.80
2022-12-08T03:31:40.667Z,96.80
2022-12-08T03:32:41.516Z,96.70
2022-12-08T03:33:40.507Z,96.70
2022-12-08T03:34:40.490Z,96.80
2022-12-08T03:35:40.473Z,96.76
2022-12-08T03:36:40.467Z,96.76
2022-12-08T03:37:40.456Z,96.76
2022-12-08T03:38:40.457Z,96.66
2022-12-08T03:39:40.425Z,96.66
2022-12-08T03:40:40.405Z,96.55
2022-12-08T03:41:40.407Z,96.44
2022-12-08T03:42:40.376Z,96.34
2022-12-08T03:43:40.375Z,96.34
2022-12-08T03:44:40.379Z,96.13
2022-12-08T03:45:40.338Z,95.92
2022-12-08T03:46:40.346Z,95.92
2022-12-08T03:47:40.316Z,95.88
2022-12-08T03:48:40.306Z,95.88
2022-12-08T03:49:41.284Z,95.88
2022-12-08T04:03:33.694Z,94.73
2022-12-08T04:04:33.676Z,94.84
2022-12-08T04:05:33.686Z,94.84
2022-12-08T04:06:33.684Z,94.63
2022-12-08T04:07:33.633Z,94.52
2022-12-08T04:08:33.633Z,94.52
2022-12-08T04:09:33.628Z,94.63
2022-12-08T04:10:59.647Z,94.63
2022-12-08T04:11:42.335Z,94.63
2022-12-08T04:12:42.116Z,94.73
2022-12-08T04:13:41.088Z,94.63
2022-12-08T04:14:33.548Z,94.63
2022-12-08T04:15:56.789Z,94.63
2022-12-08T04:16:33.622Z,94.63
2022-12-08T04:17:33.541Z,94.73
2022-12-08T04:18:33.506Z,94.73
2022-12-08T04:19:33.551Z,94.73
2022-12-08T04:20:33.504Z,94.73
2022-12-08T04:21:33.520Z,94.73
2022-12-08T04:22:43.223Z,94.73
2022-12-08T04:23:33.460Z,94.73
2022-12-08T04:24:40.954Z,94.73
2022-12-08T04:25:33.413Z,94.73
2022-12-08T04:26:40.977Z,94.63
2022-12-08T04:27:33.387Z,94.63
2022-12-08T04:28:33.425Z,94.73
2022-12-08T04:29:42.041Z,94.73
2022-12-08T04:30:40.877Z,94.78
2022-12-08T04:31:42.092Z,94.73
2022-12-08T04:32:47.194Z,94.84
2022-12-08T04:33:34.312Z,94.94
2022-12-08T04:34:33.341Z,94.94
2022-12-08T04:35:33.404Z,94.94
2022-12-08T04:36:33.391Z,94.94
2022-12-08T04:37:33.313Z,95.04
2022-12-08T04:38:33.318Z,95.04
2022-12-08T04:39:33.341Z,95.09
2022-12-08T04:40:33.239Z,95.04
2022-12-08T04:41:35.293Z,95.09
2022-12-08T04:43:05.002Z,95.19
2022-12-08T04:43:33.213Z,95.09
2022-12-08T04:44:33.185Z,95.09
2022-12-08T04:45:35.204Z,95.09
2022-12-08T04:46:33.246Z,95.09
2022-12-08T04:47:33.182Z,95.19
2022-12-08T04:48:33.133Z,95.19
2022-12-08T04:49:33.122Z,95.29
2022-12-08T04:50:33.104Z,95.25
2022-12-08T04:51:33.096Z,95.25
2022-12-08T04:52:33.096Z,95.15
2022-12-08T04:53:33.069Z,95.19
2022-12-08T04:54:34.052Z,95.19
2022-12-08T04:55:33.038Z,95.29
2022-12-08T04:56:33.034Z,95.29
2022-12-08T04:57:33.024Z,95.29
2022-12-08T04:58:34.020Z,95.29
2022-12-08T04:59:32.981Z,95.40
2022-12-08T05:00:32.982Z,95.50
2022-12-08T05:01:33.348Z,95.50
2022-12-08T05:02:34.052Z,95.50
2022-12-08T05:03:32.993Z,95.40
2022-12-08T05:04:32.943Z,95.50
2022-12-08T05:05:32.914Z,95.50
2022-12-08T05:06:32.903Z,95.50
2022-12-08T05:07:32.907Z,95.61
2022-12-08T05:08:33.017Z,95.61
2022-12-08T05:09:32.883Z,95.61
2022-12-08T05:10:32.870Z,95.61
2022-12-08T05:11:32.852Z,95.61
2022-12-08T05:12:32.822Z,95.40
2022-12-08T05:13:32.863Z,95.40
2022-12-08T05:14:32.808Z,95.29
2022-12-08T05:15:32.835Z,95.40
2022-12-08T05:16:32.821Z,95.40
2022-12-08T05:17:32.791Z,95.40
2022-12-08T05:18:32.786Z,95.40
2022-12-08T05:19:32.742Z,95.50
2022-12-08T05:20:32.743Z,95.50
2022-12-08T05:21:32.740Z,95.36
2022-12-08T05:22:32.713Z,95.36
2022-12-08T05:23:32.727Z,95.46
2022-12-08T05:24:32.675Z,95.40
2022-12-08T05:25:32.705Z,95.40
2022-12-08T05:26:32.679Z,95.29
2022-12-08T05:27:32.642Z,95.29
2022-12-08T05:28:41.721Z,95.29
2022-12-08T05:29:33.601Z,95.40
2022-12-08T05:30:32.616Z,95.40
2022-12-08T05:31:32.731Z,95.50
2022-12-08T05:32:32.583Z,95.50
2022-12-08T05:33:32.592Z,95.40
2022-12-08T05:34:32.561Z,95.40
2022-12-08T05:35:32.537Z,95.40
2022-12-08T05:36:32.524Z,95.40
2022-12-08T05:37:32.515Z,95.40
2022-12-08T05:38:32.508Z,95.50
2022-12-08T05:39:32.492Z,95.50
2022-12-08T05:40:32.482Z,95.50
2022-12-08T05:41:32.472Z,95.72
2022-12-08T05:42:32.451Z,95.82
2022-12-08T05:43:33.441Z,95.82
2022-12-08T05:44:32.451Z,95.82
2022-12-08T05:45:32.468Z,95.82
2022-12-08T05:46:32.397Z,95.72
2022-12-08T05:47:35.985Z,95.72
2022-12-08T05:48:32.424Z,95.82
2022-12-08T05:49:32.394Z,95.72
2022-12-08T05:50:32.354Z,95.67
2022-12-08T05:51:32.333Z,95.67
2022-12-08T05:52:34.372Z,95.67
2022-12-08T05:53:32.362Z,95.56
2022-12-08T05:54:32.320Z,95.56
2022-12-08T05:55:32.304Z,95.56
2022-12-08T05:56:32.295Z,95.56
2022-12-08T05:57:32.299Z,95.56
2022-12-08T05:58:32.251Z,95.46
2022-12-08T05:59:32.260Z,95.46
2022-12-08T06:00:32.223Z,95.46
2022-12-08T06:01:32.252Z,95.46
2022-12-08T06:02:32.356Z,95.36
2022-12-08T06:03:32.238Z,95.36
2022-12-08T06:04:32.178Z,95.36
2022-12-08T06:05:32.162Z,95.36
2022-12-08T06:06:32.160Z,95.46
2022-12-08T06:07:32.130Z,95.36
2022-12-08T06:08:34.183Z,95.36
2022-12-08T06:09:32.147Z,95.36
2022-12-08T06:10:32.150Z,95.36
2022-12-08T06:11:32.083Z,95.46
2022-12-08T06:12:32.073Z,95.46
2022-12-08T06:13:32.101Z,95.56
2022-12-08T06:14:32.063Z,95.67
2022-12-08T06:15:32.087Z,95.56
2022-12-08T06:16:32.076Z,95.56
2022-12-08T06:17:32.007Z,95.50
2022-12-08T06:18:33.012Z,95.50
2022-12-08T06:19:31.994Z,95.50
2022-12-08T06:20:32.033Z,95.50
2022-12-08T06:21:31.956Z,95.61
2022-12-08T06:22:31.949Z,95.61
2022-12-08T06:23:31.964Z,95.72
2022-12-08T06:24:31.951Z,95.61
2022-12-08T06:25:31.913Z,95.61
2022-12-08T06:26:31.926Z,95.50
2022-12-08T06:27:31.889Z,95.61
2022-12-08T06:28:31.876Z,95.61
2022-12-08T06:29:31.875Z,95.50
2022-12-08T06:30:31.860Z,95.61
2022-12-08T06:31:31.958Z,95.61
2022-12-08T06:32:31.872Z,95.61
2022-12-08T06:33:31.805Z,95.61
2022-12-08T06:34:31.809Z,95.72
2022-12-08T06:35:32.794Z,95.82
2022-12-08T06:36:31.788Z,95.72
2022-12-08T06:37:31.764Z,95.67
2022-12-08T06:38:31.750Z,95.67
2022-12-08T06:39:31.735Z,95.56
2022-12-08T06:40:32.742Z,95.61
2022-12-08T06:41:31.706Z,95.61
2022-12-08T06:42:31.706Z,95.61
2022-12-08T06:43:31.701Z,95.56
2022-12-08T06:44:31.695Z,95.61
2022-12-08T06:45:31.797Z,95.50
2022-12-08T06:46:31.721Z,95.50
2022-12-08T06:47:31.714Z,95.50
2022-12-08T06:48:31.624Z,95.50
2022-12-08T06:49:31.601Z,95.50
2022-12-08T06:50:31.622Z,95.50
2022-12-08T06:51:31.585Z,95.61
2022-12-08T06:52:31.574Z,95.61
2022-12-08T06:53:31.561Z,95.61
2022-12-08T06:54:31.537Z,95.72
2022-12-08T06:56:32.517Z,95.82
2022-12-08T06:57:31.496Z,95.82
2022-12-08T06:58:31.506Z,95.92
2022-12-08T06:59:31.475Z,95.88
2022-12-08T07:00:31.501Z,95.88
2022-12-08T07:01:32.558Z,95.78
2022-12-08T07:02:31.498Z,95.61
2022-12-08T07:03:31.426Z,95.50
2022-12-08T07:04:31.419Z,95.61
2022-12-08T07:05:32.433Z,95.72
2022-12-08T07:06:31.422Z,95.82
2022-12-08T07:07:31.396Z,95.82
2022-12-08T07:08:31.431Z,95.82
2022-12-08T07:09:31.347Z,95.82
2022-12-08T07:10:32.358Z,95.92
2022-12-08T07:11:31.344Z,95.78
2022-12-08T07:12:31.317Z,95.82
2022-12-08T07:13:31.318Z,95.82
2022-12-08T07:14:31.323Z,95.72
2022-12-08T07:15:31.288Z,95.72
2022-12-08T07:16:31.305Z,95.82
2022-12-08T07:17:31.282Z,95.82
2022-12-08T07:18:31.261Z,95.82
2022-12-08T07:19:31.215Z,95.92
2022-12-08T07:20:31.232Z,95.92
2022-12-08T07:21:31.203Z,96.03
2022-12-08T07:22:32.186Z,95.98
2022-12-08T07:23:31.174Z,95.82
2022-12-08T07:24:31.177Z,95.82
2022-12-08T07:25:31.159Z,95.82
2022-12-08T07:26:31.137Z,95.82
2022-12-08T07:27:31.126Z,95.82
2022-12-08T07:28:31.128Z,95.92
2022-12-08T07:29:31.099Z,95.92
2022-12-08T07:30:31.159Z,95.92
2022-12-08T07:31:31.076Z,95.92
2022-12-08T07:32:32.066Z,95.92
2022-12-08T07:33:31.067Z,95.82
2022-12-08T07:34:31.047Z,95.92
2022-12-08T07:35:31.041Z,95.92
2022-12-08T07:36:31.034Z,96.03
2022-12-08T07:37:30.996Z,96.03
2022-12-08T07:38:31.990Z,95.92
2022-12-08T07:39:30.969Z,95.92
2022-12-08T07:40:30.987Z,95.92
2022-12-08T07:41:30.947Z,95.72
2022-12-08T07:42:30.947Z,95.72
2022-12-08T07:43:30.959Z,95.72
2022-12-08T07:44:30.936Z,95.72
2022-12-08T07:45:31.839Z,95.82
2022-12-08T07:46:30.935Z,95.82
2022-12-08T07:47:30.888Z,95.82
2022-12-08T07:48:30.867Z,95.92
2022-12-08T07:49:30.871Z,95.92
2022-12-08T07:50:30.858Z,96.03
2022-12-08T07:51:30.825Z,95.98
2022-12-08T07:52:30.817Z,95.98
2022-12-08T07:53:30.881Z,96.03
2022-12-08T07:54:30.811Z,95.98
2022-12-08T07:55:30.788Z,95.98
2022-12-08T07:56:30.769Z,95.88
2022-12-08T07:57:30.747Z,95.88
2022-12-08T07:58:30.738Z,95.88
2022-12-08T07:59:32.746Z,95.78
2022-12-08T08:00:30.845Z,95.78
2022-12-08T08:01:30.755Z,95.67
2022-12-08T08:02:30.788Z,95.56
2022-12-08T08:03:30.679Z,95.46
2022-12-08T08:04:30.760Z,95.56
2022-12-08T08:05:30.692Z,95.56
2022-12-08T08:06:30.662Z,95.56
2022-12-08T08:07:30.640Z,95.67
2022-12-08T08:08:30.672Z,95.56
2022-12-08T08:09:30.599Z,95.56
2022-12-08T08:10:30.618Z,95.46
2022-12-08T08:11:30.577Z,95.36
2022-12-08T08:12:32.011Z,95.25
2022-12-08T08:13:31.536Z,95.36
2022-12-08T08:14:30.538Z,95.36
2022-12-08T08:15:30.635Z,95.56
2022-12-08T08:16:35.087Z,95.56
2022-12-08T08:17:31.660Z,95.67
2022-12-08T08:18:30.496Z,95.67
2022-12-08T08:19:30.467Z,95.67
2022-12-08T08:20:30.523Z,95.56
2022-12-08T08:21:45.472Z,95.56
2022-12-08T08:22:31.430Z,95.46
2022-12-08T08:23:30.449Z,95.36
2022-12-08T08:24:30.417Z,95.36
2022-12-08T08:25:30.430Z,95.36
2022-12-08T08:26:30.411Z,95.36
2022-12-08T08:27:30.382Z,95.36
2022-12-08T08:28:30.371Z,95.36
2022-12-08T08:29:30.363Z,95.46
2022-12-08T08:30:30.378Z,95.46
2022-12-08T08:31:30.401Z,95.56
2022-12-08T08:32:30.320Z,95.46
2022-12-08T08:33:30.309Z,95.36
2022-12-08T08:34:30.283Z,95.36
2022-12-08T08:35:30.309Z,95.46
2022-12-08T08:36:31.262Z,95.46
2022-12-08T08:37:30.250Z,95.46
2022-12-08T08:38:30.246Z,95.56
2022-12-08T08:39:30.221Z,95.56
2022-12-08T08:40:30.220Z,95.36
2022-12-08T08:41:30.210Z,95.25
2022-12-08T08:42:30.193Z,95.25
2022-12-08T08:43:34.481Z,95.25
2022-12-08T08:44:31.158Z,95.15
2022-12-08T08:45:30.169Z,95.04
2022-12-08T08:46:30.189Z,95.04
2022-12-08T08:47:30.134Z,95.04
2022-12-08T08:48:30.100Z,95.15
2022-12-08T08:49:30.115Z,95.10
2022-12-08T08:50:35.896Z,95.21
2022-12-08T08:51:31.100Z,95.21
2022-12-08T08:52:30.058Z,95.21
2022-12-08T08:53:30.039Z,95.21
2022-12-08T08:54:30.020Z,95.21
2022-12-08T08:55:30.049Z,95.10
2022-12-08T08:56:30.022Z,94.96
2022-12-08T08:57:30.028Z,94.75
2022-12-08T08:58:29.992Z,94.58
2022-12-08T08:59:29.981Z,94.48
2022-12-08T09:00:31.975Z,94.58
2022-12-08T09:01:30.040Z,94.37
2022-12-08T09:02:30.933Z,94.17
2022-12-08T09:03:29.921Z,94.37
2022-12-08T09:04:29.986Z,94.48
2022-12-08T09:05:30.904Z,94.58
2022-12-08T09:06:29.982Z,94.64
2022-12-08T09:07:29.895Z,94.64
2022-12-08T09:08:29.943Z,94.54
2022-12-08T09:09:29.853Z,94.43
2022-12-08T09:10:29.829Z,94.33
2022-12-08T09:11:29.829Z,94.43
2022-12-08T09:12:29.817Z,94.43
2022-12-08T09:13:30.849Z,94.43
2022-12-08T09:14:29.791Z,94.33
2022-12-08T09:15:29.760Z,94.23
2022-12-08T09:16:29.830Z,94.23
2022-12-08T09:17:29.751Z,94.18
2022-12-08T09:18:29.720Z,94.29
2022-12-08T09:19:29.731Z,94.08
2022-12-08T09:20:29.708Z,93.98
2022-12-08T09:21:29.740Z,93.87
2022-12-08T09:22:29.679Z,93.98
2022-12-08T09:23:35.205Z,94.08
2022-12-08T09:24:30.657Z,94.08
2022-12-08T09:25:29.652Z,94.08
2022-12-08T09:26:29.642Z,93.87
2022-12-08T09:27:29.638Z,93.77
2022-12-08T09:28:29.608Z,93.77
2022-12-08T09:29:34.184Z,93.77
2022-12-08T09:30:30.573Z,93.87
2022-12-08T09:31:29.635Z,93.87
2022-12-08T09:32:29.555Z,93.77
2022-12-08T09:33:29.550Z,93.66
2022-12-08T09:34:29.525Z,93.66
2022-12-08T09:35:29.514Z,93.56
2022-12-08T09:36:29.528Z,93.24
2022-12-08T09:37:29.504Z,93.46
2022-12-08T09:38:29.502Z,93.24
2022-12-08T09:39:29.463Z,93.24
2022-12-08T09:40:29.453Z,93.35
2022-12-08T09:41:35.934Z,93.56
2022-12-08T09:42:30.444Z,93.66
2022-12-08T09:43:29.423Z,93.14
2022-12-08T09:44:29.399Z,93.04
2022-12-08T09:45:29.393Z,93.14
2022-12-08T09:46:29.449Z,93.35
2022-12-08T09:47:35.337Z,93.46
2022-12-08T10:04:05.451Z,92.89
2022-12-08T10:05:05.474Z,92.68
2022-12-08T10:06:05.419Z,92.79
2022-12-08T10:07:05.452Z,92.68
2022-12-08T10:08:05.424Z,92.68
2022-12-08T10:09:05.371Z,92.79
2022-12-08T10:10:05.644Z,92.58
2022-12-08T10:11:05.358Z,92.47
2022-12-08T10:12:05.369Z,92.47
2022-12-08T10:13:05.336Z,92.37
2022-12-08T10:14:05.359Z,92.37
2022-12-08T10:15:05.305Z,92.58
2022-12-08T10:16:05.331Z,92.79
2022-12-08T10:17:05.350Z,92.74
2022-12-08T10:18:13.782Z,92.85
2022-12-08T10:19:05.251Z,92.85
2022-12-08T10:20:05.683Z,92.54
2022-12-08T10:21:05.232Z,92.43
2022-12-08T10:22:05.240Z,92.22
2022-12-08T10:23:05.213Z,92.22
2022-12-08T10:24:05.206Z,92.22
2022-12-08T10:25:06.218Z,92.02
2022-12-08T10:26:05.170Z,92.12
2022-12-08T10:27:05.163Z,92.12
2022-12-08T10:28:05.162Z,92.18
2022-12-08T10:29:05.129Z,91.91
2022-12-08T10:30:05.517Z,91.50
2022-12-08T10:31:05.180Z,91.28
2022-12-08T10:32:05.178Z,91.60
2022-12-08T10:33:05.075Z,91.71
2022-12-08T10:34:05.064Z,92.02
2022-12-08T10:35:05.070Z,92.18
2022-12-08T10:36:05.104Z,92.18
2022-12-08T10:37:05.042Z,91.87
2022-12-08T10:38:05.025Z,91.56
2022-12-08T10:39:05.299Z,91.46
2022-12-08T10:40:06.120Z,91.35
2022-12-08T10:41:04.986Z,91.41
2022-12-08T10:42:04.991Z,91.31
2022-12-08T10:43:04.963Z,91.00
2022-12-08T10:44:04.932Z,90.79
2022-12-08T10:45:04.975Z,90.69
2022-12-08T10:46:04.920Z,90.64
2022-12-08T10:47:05.038Z,90.23
2022-12-08T10:48:04.880Z,90.02
2022-12-08T10:49:04.918Z,89.81
2022-12-08T10:50:05.123Z,89.92
2022-12-08T10:51:04.878Z,89.92
2022-12-08T10:52:04.862Z,89.18
2022-12-08T10:53:04.843Z,88.98
2022-12-08T10:54:04.811Z,88.98
2022-12-08T10:55:04.833Z,89.02
2022-12-08T10:56:04.804Z,89.33
2022-12-08T10:57:04.816Z,89.50
2022-12-08T10:58:04.776Z,89.39
2022-12-08T10:59:04.781Z,89.08
2022-12-08T11:00:08.279Z,89.08
2022-12-08T11:01:05.803Z,89.25
2022-12-08T11:02:04.834Z,89.04
2022-12-08T11:03:04.831Z,88.69
2022-12-08T11:04:04.683Z,88.38
2022-12-08T11:05:04.670Z,88.13
2022-12-08T11:06:10.838Z,87.40
2022-12-08T11:07:05.683Z,86.57
2022-12-08T11:08:04.838Z,86.26
2022-12-08T11:09:04.615Z,86.47
2022-12-08T11:10:05.175Z,86.54
2022-12-08T11:11:05.595Z,86.43
2022-12-08T11:12:04.586Z,86.49
2022-12-08T11:13:04.592Z,85.14
2022-12-08T11:14:04.600Z,84.73
2022-12-08T11:15:04.534Z,85.11
2022-12-08T11:16:04.622Z,84.69
2022-12-08T11:17:04.608Z,83.45
2022-12-08T11:18:04.531Z,83.51
2022-12-08T11:19:04.491Z,82.72
2022-12-08T11:20:04.759Z,82.37
2022-12-08T11:21:05.466Z,81.20
2022-12-08T11:22:04.477Z,80.91
2022-12-08T11:23:04.435Z,80.11
2022-12-08T11:24:04.444Z,78.01
2022-12-08T11:25:04.408Z,77.01
2022-12-08T11:26:04.405Z,76.08
2022-12-08T11:27:04.407Z,75.05
2022-12-08T11:28:04.387Z,71.62
2022-12-08T11:29:04.358Z,69.97
2022-12-08T11:30:08.429Z,71.31
2022-12-08T11:31:06.399Z,70.38
2022-12-08T11:32:04.427Z,70.69
2022-12-08T11:33:04.340Z,69.59
2022-12-08T11:34:04.303Z,69.76
2022-12-08T11:35:04.306Z,71.20
2022-12-08T11:36:04.260Z,72.81
2022-12-08T11:37:04.246Z,72.30
2022-12-08T11:38:20.589Z,74.67
2022-12-08T11:39:05.226Z,75.36
2022-12-08T11:40:04.548Z,76.91
2022-12-08T11:41:04.200Z,77.15
2022-12-08T11:42:04.196Z,76.98
2022-12-08T11:43:04.178Z,77.70
2022-12-08T11:44:04.149Z,78.64
2022-12-08T11:45:04.427Z,79.26
2022-12-08T11:46:05.146Z,79.05
2022-12-08T11:47:05.110Z,79.05
2022-12-08T11:48:04.156Z,78.57
2022-12-08T11:49:06.800Z,79.40
2022-12-08T11:50:04.243Z,78.64
2022-12-08T11:51:04.057Z,78.22
2022-12-08T11:52:05.088Z,77.43
2022-12-08T11:53:04.050Z,78.30
2022-12-08T11:54:04.032Z,79.23
2022-12-08T11:55:04.026Z,79.78
2022-12-08T11:56:04.010Z,79.78
2022-12-08T11:57:04.012Z,80.06
2022-12-08T11:58:04.042Z,80.99
2022-12-08T11:59:03.963Z,82.07
2022-12-08T12:00:04.428Z,82.80
2022-12-08T12:01:03.942Z,82.80
2022-12-08T12:02:04.024Z,82.39
2022-12-08T12:03:03.993Z,82.70
2022-12-08T12:04:03.908Z,83.11
2022-12-08T12:05:03.897Z,82.70
2022-12-08T12:06:38.248Z,82.70
2022-12-08T12:07:04.860Z,83.01
2022-12-08T12:08:03.917Z,83.32
2022-12-08T12:09:03.849Z,83.73
2022-12-08T12:10:04.170Z,83.07
2022-12-08T12:11:03.800Z,82.70
2022-12-08T12:12:03.832Z,82.59
2022-12-08T12:13:04.789Z,82.70
2022-12-08T12:14:03.792Z,83.01
2022-12-08T12:15:03.755Z,82.70
2022-12-08T12:16:03.738Z,83.22
2022-12-08T12:17:03.822Z,83.42
2022-12-08T12:18:04.724Z,83.73
2022-12-08T12:19:03.734Z,83.42
2022-12-08T12:20:04.030Z,83.32
2022-12-08T12:21:03.683Z,82.63
2022-12-08T12:22:05.702Z,82.94
2022-12-08T12:23:03.697Z,82.94
2022-12-08T12:24:03.648Z,83.04
2022-12-08T12:25:03.643Z,83.67
2022-12-08T12:26:03.655Z,83.87
2022-12-08T12:27:05.656Z,83.36
2022-12-08T12:28:03.591Z,83.87
2022-12-08T12:29:03.602Z,83.67
2022-12-08T12:30:03.662Z,83.56
2022-12-08T12:31:03.562Z,83.87
2022-12-08T12:32:04.541Z,83.98
2022-12-08T12:33:03.524Z,83.36
2022-12-08T12:34:03.534Z,83.56
2022-12-08T12:35:03.510Z,83.56
2022-12-08T12:36:03.491Z,83.56
2022-12-08T12:37:03.470Z,83.56
2022-12-08T12:38:03.461Z,83.11
2022-12-08T12:39:03.476Z,83.22
2022-12-08T12:40:03.737Z,82.84
2022-12-08T12:41:03.438Z,83.36
2022-12-08T12:42:04.410Z,83.63
2022-12-08T12:43:03.392Z,83.22
2022-12-08T12:44:03.384Z,83.11
2022-12-08T12:45:03.393Z,83.22
2022-12-08T12:46:03.393Z,83.84
2022-12-08T12:47:04.346Z,83.42
2022-12-08T12:48:03.356Z,83.22
2022-12-08T12:49:03.315Z,82.80
2022-12-08T12:50:03.905Z,83.36
2022-12-08T12:51:03.293Z,83.73
2022-12-08T12:52:03.327Z,83.53
2022-12-08T12:53:03.273Z,83.15
2022-12-08T12:54:03.252Z,83.56
2022-12-08T12:55:03.283Z,84.08
2022-12-08T12:56:03.240Z,84.29
2022-12-08T12:57:03.243Z,84.19
2022-12-08T12:58:03.203Z,83.04
2022-12-08T12:59:03.206Z,83.04
2022-12-08T13:00:03.191Z,83.04
2022-12-08T13:01:03.228Z,83.25
2022-12-08T13:02:03.310Z,82.94
2022-12-08T13:03:03.330Z,83.36
2022-12-08T13:04:03.121Z,83.56
2022-12-08T13:05:03.134Z,83.67
2022-12-08T13:06:03.115Z,82.94
2022-12-08T13:07:03.143Z,82.63
2022-12-08T13:08:03.166Z,83.15
2022-12-08T13:09:03.065Z,83.04
2022-12-08T13:10:03.258Z,83.04
2022-12-08T13:11:03.032Z,82.94
2022-12-08T13:12:03.027Z,82.63
2022-12-08T13:13:03.997Z,83.15
2022-12-08T13:14:02.974Z,83.25
2022-12-08T13:15:11.684Z,83.36
2022-12-08T13:16:12.725Z,83.77
2022-12-08T13:17:10.507Z,83.50
2022-12-08T13:18:02.939Z,83.50
2022-12-08T13:19:10.432Z,83.39
2022-12-08T13:20:02.902Z,83.50
2022-12-08T13:21:12.603Z,83.70
2022-12-08T13:22:02.877Z,83.91
2022-12-08T13:23:10.403Z,83.81